sensor_id;sensor_type;location;lat;lon;timestamp;P1;durP1;ratioP1;P2;durP2;ratioP2
56911;SDS011;42800;53.928;27.662;2023-02-15T00:01:17;3.35;;;1.40;;
56911;SDS011;42800;53.928;27.662;2023-02-15T00:03:43;3.65;;;1.27;;
56911;SDS011;42800;53.928;27.662;2023-02-15T00:06:09;2.22;;;1.38;;
56911;SDS011;42800;53.928;27.662;2023-02-15T00:08:35;2.95;;;1.25;;
56911;SDS011;42800;53.928;27.662;2023-02-15T00:11:05;1.67;;;1.35;;
56911;SDS011;42800;53.928;27.662;2023-02-15T00:13:32;3.05;;;2.08;;
56911;SDS011;42800;53.928;27.662;2023-02-15T00:16:01;3.30;;;1.55;;
56911;SDS011;42800;53.928;27.662;2023-02-15T00:18:28;1.73;;;1.20;;
56911;SDS011;42800;53.928;27.662;2023-02-15T00:20:54;1.52;;;1.17;;
56911;SDS011;42800;53.928;27.662;2023-02-15T00:23:20;2.00;;;1.02;;
56911;SDS011;42800;53.928;27.662;2023-02-15T00:25:47;2.85;;;1.10;;
56911;SDS011;42800;53.928;27.662;2023-02-15T00:28:13;2.40;;;1.33;;
56911;SDS011;42800;53.928;27.662;2023-02-15T00:30:39;3.28;;;1.20;;
56911;SDS011;42800;53.928;27.662;2023-02-15T00:33:06;2.83;;;1.50;;
56911;SDS011;42800;53.928;27.662;2023-02-15T00:35:32;4.43;;;1.20;;
56911;SDS011;42800;53.928;27.662;2023-02-15T00:37:58;3.28;;;1.10;;
56911;SDS011;42800;53.928;27.662;2023-02-15T00:40:25;5.38;;;1.30;;
56911;SDS011;42800;53.928;27.662;2023-02-15T00:42:51;5.15;;;1.33;;
56911;SDS011;42800;53.928;27.662;2023-02-15T00:45:17;2.47;;;1.00;;
56911;SDS011;42800;53.928;27.662;2023-02-15T00:47:43;5.25;;;1.33;;
56911;SDS011;42800;53.928;27.662;2023-02-15T00:50:10;3.75;;;1.50;;
56911;SDS011;42800;53.928;27.662;2023-02-15T00:52:36;4.13;;;1.20;;
56911;SDS011;42800;53.928;27.662;2023-02-15T00:55:03;2.60;;;1.40;;
56911;SDS011;42800;53.928;27.662;2023-02-15T00:57:29;2.70;;;1.27;;
56911;SDS011;42800;53.928;27.662;2023-02-15T00:59:55;4.05;;;1.38;;
56911;SDS011;42800;53.928;27.662;2023-02-15T01:02:22;7.90;;;1.10;;
56911;SDS011;42800;53.928;27.662;2023-02-15T01:04:48;4.88;;;1.35;;
56911;SDS011;42800;53.928;27.662;2023-02-15T01:07:15;4.88;;;1.50;;
56911;SDS011;42800;53.928;27.662;2023-02-15T01:09:41;6.25;;;1.70;;
56911;SDS011;42800;53.928;27.662;2023-02-15T01:12:07;3.60;;;1.40;;
56911;SDS011;42800;53.928;27.662;2023-02-15T01:14:34;3.55;;;1.45;;
56911;SDS011;42800;53.928;27.662;2023-02-15T01:17:00;2.72;;;1.42;;
56911;SDS011;42800;53.928;27.662;2023-02-15T01:19:26;1.67;;;1.30;;
56911;SDS011;42800;53.928;27.662;2023-02-15T01:21:52;1.40;;;1.30;;
56911;SDS011;42800;53.928;27.662;2023-02-15T01:24:19;6.72;;;1.38;;
56911;SDS011;42800;53.928;27.662;2023-02-15T01:26:45;3.97;;;1.35;;
56911;SDS011;42800;53.928;27.662;2023-02-15T01:29:11;1.10;;;1.00;;
56911;SDS011;42800;53.928;27.662;2023-02-15T01:31:38;5.93;;;1.60;;
56911;SDS011;42800;53.928;27.662;2023-02-15T01:34:04;1.70;;;0.93;;
56911;SDS011;42800;53.928;27.662;2023-02-15T01:36:30;2.33;;;1.52;;
56911;SDS011;42800;53.928;27.662;2023-02-15T01:38:58;4.05;;;1.50;;
56911;SDS011;42800;53.928;27.662;2023-02-15T01:41:26;3.75;;;1.17;;
56911;SDS011;42800;53.928;27.662;2023-02-15T01:43:53;5.57;;;1.58;;
56911;SDS011;42800;53.928;27.662;2023-02-15T01:46:22;2.58;;;1.13;;
56911;SDS011;42800;53.928;27.662;2023-02-15T01:48:54;3.38;;;1.50;;
56911;SDS011;42800;53.928;27.662;2023-02-15T01:51:26;2.25;;;1.27;;
56911;SDS011;42800;53.928;27.662;2023-02-15T01:53:55;3.28;;;1.25;;
56911;SDS011;42800;53.928;27.662;2023-02-15T01:56:27;2.33;;;1.08;;
56911;SDS011;42800;53.928;27.662;2023-02-15T01:58:58;2.33;;;1.40;;
56911;SDS011;42800;53.928;27.662;2023-02-15T02:01:29;3.65;;;1.40;;
56911;SDS011;42800;53.928;27.662;2023-02-15T02:03:57;1.98;;;1.20;;
56911;SDS011;42800;53.928;27.662;2023-02-15T02:06:28;3.67;;;1.10;;
56911;SDS011;42800;53.928;27.662;2023-02-15T02:08:55;3.88;;;1.15;;
56911;SDS011;42800;53.928;27.662;2023-02-15T02:11:22;1.60;;;1.20;;
56911;SDS011;42800;53.928;27.662;2023-02-15T02:13:49;1.65;;;1.15;;
56911;SDS011;42800;53.928;27.662;2023-02-15T02:16:20;7.43;;;1.50;;
56911;SDS011;42800;53.928;27.662;2023-02-15T02:18:52;4.22;;;1.15;;
56911;SDS011;42800;53.928;27.662;2023-02-15T02:24:57;2.35;;;1.52;;
56911;SDS011;42800;53.928;27.662;2023-02-15T02:27:45;1.30;;;0.98;;
56911;SDS011;42800;53.928;27.662;2023-02-15T02:30:26;2.78;;;1.13;;
56911;SDS011;42800;53.928;27.662;2023-02-15T02:33:20;4.85;;;1.10;;
56911;SDS011;42800;53.928;27.662;2023-02-15T02:36:00;2.30;;;1.10;;
56911;SDS011;42800;53.928;27.662;2023-02-15T02:38:36;2.88;;;1.63;;
56911;SDS011;42800;53.928;27.662;2023-02-15T02:41:16;2.90;;;1.38;;
56911;SDS011;42800;53.928;27.662;2023-02-15T02:43:50;2.28;;;1.23;;
56911;SDS011;42800;53.928;27.662;2023-02-15T02:46:20;6.63;;;1.58;;
56911;SDS011;42800;53.928;27.662;2023-02-15T02:48:53;1.85;;;1.25;;
56911;SDS011;42800;53.928;27.662;2023-02-15T02:51:20;2.67;;;1.20;;
56911;SDS011;42800;53.928;27.662;2023-02-15T02:53:48;2.53;;;1.33;;
56911;SDS011;42800;53.928;27.662;2023-02-15T02:56:19;2.42;;;1.33;;
56911;SDS011;42800;53.928;27.662;2023-02-15T02:58:48;3.75;;;1.00;;
56911;SDS011;42800;53.928;27.662;2023-02-15T03:01:18;1.73;;;1.60;;
56911;SDS011;42800;53.928;27.662;2023-02-15T03:03:50;1.75;;;1.08;;
56911;SDS011;42800;53.928;27.662;2023-02-15T03:06:23;3.25;;;1.10;;
56911;SDS011;42800;53.928;27.662;2023-02-15T03:08:55;2.33;;;0.98;;
56911;SDS011;42800;53.928;27.662;2023-02-15T03:11:26;3.45;;;1.15;;
56911;SDS011;42800;53.928;27.662;2023-02-15T03:13:52;3.83;;;1.60;;
56911;SDS011;42800;53.928;27.662;2023-02-15T03:16:19;3.08;;;1.10;;
56911;SDS011;42800;53.928;27.662;2023-02-15T03:18:52;3.20;;;1.17;;
56911;SDS011;42800;53.928;27.662;2023-02-15T03:21:25;5.30;;;1.00;;
56911;SDS011;42800;53.928;27.662;2023-02-15T03:23:57;3.80;;;1.50;;
56911;SDS011;42800;53.928;27.662;2023-02-15T03:26:30;7.68;;;1.90;;
56911;SDS011;42800;53.928;27.662;2023-02-15T03:28:57;5.25;;;1.58;;
56911;SDS011;42800;53.928;27.662;2023-02-15T03:31:26;3.95;;;1.50;;
56911;SDS011;42800;53.928;27.662;2023-02-15T03:33:57;1.88;;;1.17;;
56911;SDS011;42800;53.928;27.662;2023-02-15T03:36:29;6.03;;;1.40;;
56911;SDS011;42800;53.928;27.662;2023-02-15T03:39:02;6.80;;;1.48;;
56911;SDS011;42800;53.928;27.662;2023-02-15T03:41:33;6.47;;;1.75;;
56911;SDS011;42800;53.928;27.662;2023-02-15T03:44:06;1.30;;;1.20;;
56911;SDS011;42800;53.928;27.662;2023-02-15T03:46:40;4.40;;;1.60;;
56911;SDS011;42800;53.928;27.662;2023-02-15T03:49:11;2.20;;;1.42;;
56911;SDS011;42800;53.928;27.662;2023-02-15T03:51:43;3.83;;;1.70;;
56911;SDS011;42800;53.928;27.662;2023-02-15T03:54:13;2.78;;;1.35;;
56911;SDS011;42800;53.928;27.662;2023-02-15T03:57:03;4.13;;;1.38;;
56911;SDS011;42800;53.928;27.662;2023-02-15T03:59:48;4.55;;;1.33;;
56911;SDS011;42800;53.928;27.662;2023-02-15T04:05:04;5.13;;;1.35;;
56911;SDS011;42800;53.928;27.662;2023-02-15T04:07:31;9.38;;;1.77;;
56911;SDS011;42800;53.928;27.662;2023-02-15T04:09:57;6.55;;;1.92;;
56911;SDS011;42800;53.928;27.662;2023-02-15T04:12:42;5.95;;;2.25;;
56911;SDS011;42800;53.928;27.662;2023-02-15T04:15:08;2.50;;;1.67;;
56911;SDS011;42800;53.928;27.662;2023-02-15T04:17:55;2.83;;;1.27;;
56911;SDS011;42800;53.928;27.662;2023-02-15T04:20:22;6.53;;;1.60;;
56911;SDS011;42800;53.928;27.662;2023-02-15T04:23:07;4.43;;;1.92;;
56911;SDS011;42800;53.928;27.662;2023-02-15T04:25:51;4.22;;;1.40;;
56911;SDS011;42800;53.928;27.662;2023-02-15T04:28:17;2.88;;;1.38;;
56911;SDS011;42800;53.928;27.662;2023-02-15T04:30:43;5.03;;;1.88;;
56911;SDS011;42800;53.928;27.662;2023-02-15T04:33:10;3.97;;;2.20;;
56911;SDS011;42800;53.928;27.662;2023-02-15T04:35:36;4.25;;;1.48;;
56911;SDS011;42800;53.928;27.662;2023-02-15T04:38:03;6.68;;;2.13;;
56911;SDS011;42800;53.928;27.662;2023-02-15T04:40:29;7.38;;;2.05;;
56911;SDS011;42800;53.928;27.662;2023-02-15T04:42:55;2.60;;;1.40;;
56911;SDS011;42800;53.928;27.662;2023-02-15T04:45:21;3.25;;;1.67;;
56911;SDS011;42800;53.928;27.662;2023-02-15T04:47:48;2.65;;;1.85;;
56911;SDS011;42800;53.928;27.662;2023-02-15T04:50:14;2.90;;;2.05;;
56911;SDS011;42800;53.928;27.662;2023-02-15T04:52:41;9.93;;;2.03;;
56911;SDS011;42800;53.928;27.662;2023-02-15T04:55:07;3.55;;;1.92;;
56911;SDS011;42800;53.928;27.662;2023-02-15T04:57:33;7.75;;;1.65;;
56911;SDS011;42800;53.928;27.662;2023-02-15T05:00:00;6.13;;;2.15;;
56911;SDS011;42800;53.928;27.662;2023-02-15T05:02:26;6.32;;;2.58;;
56911;SDS011;42800;53.928;27.662;2023-02-15T05:04:52;4.25;;;1.88;;
56911;SDS011;42800;53.928;27.662;2023-02-15T05:07:18;4.18;;;2.22;;
56911;SDS011;42800;53.928;27.662;2023-02-15T05:09:46;4.35;;;2.00;;
56911;SDS011;42800;53.928;27.662;2023-02-15T05:12:12;4.00;;;1.80;;
56911;SDS011;42800;53.928;27.662;2023-02-15T05:14:39;4.78;;;2.15;;
56911;SDS011;42800;53.928;27.662;2023-02-15T05:17:05;3.28;;;1.15;;
56911;SDS011;42800;53.928;27.662;2023-02-15T05:19:31;6.00;;;2.20;;
56911;SDS011;42800;53.928;27.662;2023-02-15T05:21:57;3.10;;;1.48;;
56911;SDS011;42800;53.928;27.662;2023-02-15T05:24:24;3.83;;;1.92;;
56911;SDS011;42800;53.928;27.662;2023-02-15T05:27:10;5.18;;;1.90;;
56911;SDS011;42800;53.928;27.662;2023-02-15T05:29:54;4.65;;;1.92;;
56911;SDS011;42800;53.928;27.662;2023-02-15T05:32:21;5.15;;;1.70;;
56911;SDS011;42800;53.928;27.662;2023-02-15T05:34:47;7.10;;;1.83;;
56911;SDS011;42800;53.928;27.662;2023-02-15T05:37:13;6.45;;;1.77;;
56911;SDS011;42800;53.928;27.662;2023-02-15T05:39:39;5.75;;;2.28;;
56911;SDS011;42800;53.928;27.662;2023-02-15T05:42:05;6.03;;;1.63;;
56911;SDS011;42800;53.928;27.662;2023-02-15T05:44:32;3.90;;;1.70;;
56911;SDS011;42800;53.928;27.662;2023-02-15T05:46:58;3.25;;;1.80;;
56911;SDS011;42800;53.928;27.662;2023-02-15T05:49:25;7.75;;;2.03;;
56911;SDS011;42800;53.928;27.662;2023-02-15T05:51:51;8.05;;;2.20;;
56911;SDS011;42800;53.928;27.662;2023-02-15T05:54:18;4.32;;;1.65;;
56911;SDS011;42800;53.928;27.662;2023-02-15T05:56:44;2.85;;;1.70;;
56911;SDS011;42800;53.928;27.662;2023-02-15T05:59:10;3.15;;;2.13;;
56911;SDS011;42800;53.928;27.662;2023-02-15T06:01:38;3.55;;;1.95;;
56911;SDS011;42800;53.928;27.662;2023-02-15T06:04:04;3.30;;;1.80;;
56911;SDS011;42800;53.928;27.662;2023-02-15T06:06:31;6.75;;;2.58;;
56911;SDS011;42800;53.928;27.662;2023-02-15T06:08:57;4.85;;;2.10;;
56911;SDS011;42800;53.928;27.662;2023-02-15T06:11:23;4.45;;;1.65;;
56911;SDS011;42800;53.928;27.662;2023-02-15T06:13:49;2.80;;;1.40;;
56911;SDS011;42800;53.928;27.662;2023-02-15T06:16:16;3.78;;;1.88;;
56911;SDS011;42800;53.928;27.662;2023-02-15T06:18:43;3.47;;;1.60;;
56911;SDS011;42800;53.928;27.662;2023-02-15T06:21:09;10.00;;;2.08;;
56911;SDS011;42800;53.928;27.662;2023-02-15T06:23:35;3.13;;;2.08;;
56911;SDS011;42800;53.928;27.662;2023-02-15T06:26:01;4.55;;;1.83;;
56911;SDS011;42800;53.928;27.662;2023-02-15T06:28:28;4.97;;;2.00;;
56911;SDS011;42800;53.928;27.662;2023-02-15T06:30:54;5.22;;;1.60;;
56911;SDS011;42800;53.928;27.662;2023-02-15T06:33:20;1.42;;;1.25;;
56911;SDS011;42800;53.928;27.662;2023-02-15T06:35:48;6.05;;;2.03;;
56911;SDS011;42800;53.928;27.662;2023-02-15T06:38:14;4.82;;;2.90;;
56911;SDS011;42800;53.928;27.662;2023-02-15T06:40:40;6.15;;;1.75;;
56911;SDS011;42800;53.928;27.662;2023-02-15T06:43:06;3.13;;;2.13;;
56911;SDS011;42800;53.928;27.662;2023-02-15T06:45:32;3.30;;;1.83;;
56911;SDS011;42800;53.928;27.662;2023-02-15T06:47:58;5.05;;;1.77;;
56911;SDS011;42800;53.928;27.662;2023-02-15T06:50:25;5.13;;;2.25;;
56911;SDS011;42800;53.928;27.662;2023-02-15T06:52:55;9.05;;;2.00;;
56911;SDS011;42800;53.928;27.662;2023-02-15T06:55:22;6.10;;;2.35;;
56911;SDS011;42800;53.928;27.662;2023-02-15T06:57:48;7.53;;;2.45;;
56911;SDS011;42800;53.928;27.662;2023-02-15T07:00:14;6.45;;;2.70;;
56911;SDS011;42800;53.928;27.662;2023-02-15T07:02:42;4.97;;;2.45;;
56911;SDS011;42800;53.928;27.662;2023-02-15T07:05:08;7.10;;;2.72;;
56911;SDS011;42800;53.928;27.662;2023-02-15T07:07:35;4.38;;;1.90;;
56911;SDS011;42800;53.928;27.662;2023-02-15T07:10:02;4.97;;;1.73;;
56911;SDS011;42800;53.928;27.662;2023-02-15T07:12:29;3.70;;;2.20;;
56911;SDS011;42800;53.928;27.662;2023-02-15T07:15:08;4.60;;;2.53;;
56911;SDS011;42800;53.928;27.662;2023-02-15T07:17:34;3.63;;;2.17;;
56911;SDS011;42800;53.928;27.662;2023-02-15T07:20:00;6.60;;;2.88;;
56911;SDS011;42800;53.928;27.662;2023-02-15T07:22:27;9.43;;;3.45;;
56911;SDS011;42800;53.928;27.662;2023-02-15T07:24:53;6.38;;;2.40;;
56911;SDS011;42800;53.928;27.662;2023-02-15T07:27:20;13.82;;;3.25;;
56911;SDS011;42800;53.928;27.662;2023-02-15T07:29:46;5.57;;;2.15;;
56911;SDS011;42800;53.928;27.662;2023-02-15T07:32:13;4.40;;;2.10;;
56911;SDS011;42800;53.928;27.662;2023-02-15T07:34:39;5.60;;;2.40;;
56911;SDS011;42800;53.928;27.662;2023-02-15T07:37:06;6.38;;;2.10;;
56911;SDS011;42800;53.928;27.662;2023-02-15T07:39:32;3.13;;;1.63;;
56911;SDS011;42800;53.928;27.662;2023-02-15T07:41:59;6.90;;;2.40;;
56911;SDS011;42800;53.928;27.662;2023-02-15T07:44:26;6.65;;;2.65;;
56911;SDS011;42800;53.928;27.662;2023-02-15T07:46:52;8.98;;;2.53;;
56911;SDS011;42800;53.928;27.662;2023-02-15T07:49:18;4.65;;;2.55;;
56911;SDS011;42800;53.928;27.662;2023-02-15T07:51:45;6.35;;;3.15;;
56911;SDS011;42800;53.928;27.662;2023-02-15T07:54:11;6.43;;;2.40;;
56911;SDS011;42800;53.928;27.662;2023-02-15T07:56:37;12.60;;;2.95;;
56911;SDS011;42800;53.928;27.662;2023-02-15T07:59:03;6.93;;;2.92;;
56911;SDS011;42800;53.928;27.662;2023-02-15T08:01:31;8.93;;;2.72;;
56911;SDS011;42800;53.928;27.662;2023-02-15T08:04:00;6.22;;;2.75;;
56911;SDS011;42800;53.928;27.662;2023-02-15T08:06:27;7.75;;;2.92;;
56911;SDS011;42800;53.928;27.662;2023-02-15T08:08:55;11.60;;;2.75;;
56911;SDS011;42800;53.928;27.662;2023-02-15T08:11:22;7.63;;;2.33;;
56911;SDS011;42800;53.928;27.662;2023-02-15T08:13:58;13.30;;;3.70;;
56911;SDS011;42800;53.928;27.662;2023-02-15T08:16:28;11.23;;;2.65;;
56911;SDS011;42800;53.928;27.662;2023-02-15T08:18:58;6.13;;;2.58;;
56911;SDS011;42800;53.928;27.662;2023-02-15T08:21:27;8.70;;;2.78;;
56911;SDS011;42800;53.928;27.662;2023-02-15T08:23:54;7.28;;;2.90;;
56911;SDS011;42800;53.928;27.662;2023-02-15T08:26:21;6.25;;;2.80;;
56911;SDS011;42800;53.928;27.662;2023-02-15T08:28:47;8.95;;;2.70;;
56911;SDS011;42800;53.928;27.662;2023-02-15T08:31:14;6.78;;;2.75;;
56911;SDS011;42800;53.928;27.662;2023-02-15T08:33:41;5.45;;;2.70;;
56911;SDS011;42800;53.928;27.662;2023-02-15T08:36:13;8.80;;;2.53;;
56911;SDS011;42800;53.928;27.662;2023-02-15T08:38:40;9.00;;;3.58;;
56911;SDS011;42800;53.928;27.662;2023-02-15T08:41:10;6.88;;;3.05;;
56911;SDS011;42800;53.928;27.662;2023-02-15T08:43:38;5.60;;;2.65;;
56911;SDS011;42800;53.928;27.662;2023-02-15T08:46:04;6.72;;;2.45;;
56911;SDS011;42800;53.928;27.662;2023-02-15T08:48:30;5.53;;;3.20;;
56911;SDS011;42800;53.928;27.662;2023-02-15T08:50:56;9.25;;;2.40;;
56911;SDS011;42800;53.928;27.662;2023-02-15T08:53:23;8.60;;;2.65;;
56911;SDS011;42800;53.928;27.662;2023-02-15T08:55:54;4.85;;;2.47;;
56911;SDS011;42800;53.928;27.662;2023-02-15T08:58:21;5.28;;;2.47;;
56911;SDS011;42800;53.928;27.662;2023-02-15T09:00:47;12.38;;;2.58;;
56911;SDS011;42800;53.928;27.662;2023-02-15T09:03:13;8.32;;;2.55;;
56911;SDS011;42800;53.928;27.662;2023-02-15T09:05:40;6.45;;;3.05;;
56911;SDS011;42800;53.928;27.662;2023-02-15T09:08:06;3.75;;;2.28;;
56911;SDS011;42800;53.928;27.662;2023-02-15T09:10:33;8.70;;;2.90;;
56911;SDS011;42800;53.928;27.662;2023-02-15T09:12:59;8.60;;;3.33;;
56911;SDS011;42800;53.928;27.662;2023-02-15T09:15:25;6.30;;;2.58;;
56911;SDS011;42800;53.928;27.662;2023-02-15T09:17:52;9.95;;;3.17;;
56911;SDS011;42800;53.928;27.662;2023-02-15T09:20:18;8.43;;;3.13;;
56911;SDS011;42800;53.928;27.662;2023-02-15T09:22:44;8.23;;;2.60;;
56911;SDS011;42800;53.928;27.662;2023-02-15T09:25:10;11.88;;;3.00;;
56911;SDS011;42800;53.928;27.662;2023-02-15T09:27:39;8.15;;;2.60;;
56911;SDS011;42800;53.928;27.662;2023-02-15T09:30:06;6.35;;;2.15;;
56911;SDS011;42800;53.928;27.662;2023-02-15T09:32:33;7.65;;;2.53;;
56911;SDS011;42800;53.928;27.662;2023-02-15T09:34:59;6.45;;;2.30;;
56911;SDS011;42800;53.928;27.662;2023-02-15T09:37:25;6.38;;;2.45;;
56911;SDS011;42800;53.928;27.662;2023-02-15T09:39:51;11.07;;;2.33;;
56911;SDS011;42800;53.928;27.662;2023-02-15T09:42:26;4.28;;;2.22;;
56911;SDS011;42800;53.928;27.662;2023-02-15T09:45:12;6.47;;;1.90;;
56911;SDS011;42800;53.928;27.662;2023-02-15T09:50:51;7.68;;;2.88;;
56911;SDS011;42800;53.928;27.662;2023-02-15T09:53:29;4.45;;;2.33;;
56911;SDS011;42800;53.928;27.662;2023-02-15T09:56:10;7.18;;;2.50;;
56911;SDS011;42800;53.928;27.662;2023-02-15T09:58:48;5.05;;;2.97;;
56911;SDS011;42800;53.928;27.662;2023-02-15T10:01:22;7.25;;;2.80;;
56911;SDS011;42800;53.928;27.662;2023-02-15T10:04:10;7.97;;;2.92;;
56911;SDS011;42800;53.928;27.662;2023-02-15T10:06:51;4.88;;;2.45;;
56911;SDS011;42800;53.928;27.662;2023-02-15T10:09:32;4.18;;;2.25;;
56911;SDS011;42800;53.928;27.662;2023-02-15T10:15:21;11.02;;;2.65;;
56911;SDS011;42800;53.928;27.662;2023-02-15T10:18:03;4.55;;;2.80;;
56911;SDS011;42800;53.928;27.662;2023-02-15T10:20:40;8.48;;;3.40;;
56911;SDS011;42800;53.928;27.662;2023-02-15T10:23:22;6.53;;;2.58;;
56911;SDS011;42800;53.928;27.662;2023-02-15T10:26:04;8.48;;;3.53;;
56911;SDS011;42800;53.928;27.662;2023-02-15T10:28:41;7.57;;;2.78;;
56911;SDS011;42800;53.928;27.662;2023-02-15T10:31:15;5.25;;;2.40;;
56911;SDS011;42800;53.928;27.662;2023-02-15T10:33:48;7.93;;;2.95;;
56911;SDS011;42800;53.928;27.662;2023-02-15T10:36:24;8.20;;;4.65;;
56911;SDS011;42800;53.928;27.662;2023-02-15T10:39:02;4.35;;;2.85;;
56911;SDS011;42800;53.928;27.662;2023-02-15T10:41:40;6.18;;;2.45;;
56911;SDS011;42800;53.928;27.662;2023-02-15T10:44:18;7.82;;;2.80;;
56911;SDS011;42800;53.928;27.662;2023-02-15T10:47:11;5.38;;;2.75;;
56911;SDS011;42800;53.928;27.662;2023-02-15T10:52:54;7.00;;;2.15;;
56911;SDS011;42800;53.928;27.662;2023-02-15T10:55:38;4.68;;;2.60;;
56911;SDS011;42800;53.928;27.662;2023-02-15T10:58:17;8.60;;;2.45;;
56911;SDS011;42800;53.928;27.662;2023-02-15T11:00:56;3.10;;;1.90;;
56911;SDS011;42800;53.928;27.662;2023-02-15T11:03:36;8.20;;;2.53;;
56911;SDS011;42800;53.928;27.662;2023-02-15T11:06:13;7.78;;;3.08;;
56911;SDS011;42800;53.928;27.662;2023-02-15T11:08:43;4.50;;;2.33;;
56911;SDS011;42800;53.928;27.662;2023-02-15T11:11:10;4.88;;;2.28;;
56911;SDS011;42800;53.928;27.662;2023-02-15T11:13:43;7.78;;;4.10;;
56911;SDS011;42800;53.928;27.662;2023-02-15T11:16:14;9.05;;;2.95;;
56911;SDS011;42800;53.928;27.662;2023-02-15T11:18:45;4.15;;;2.33;;
56911;SDS011;42800;53.928;27.662;2023-02-15T11:21:17;8.30;;;3.30;;
56911;SDS011;42800;53.928;27.662;2023-02-15T11:23:48;7.18;;;2.67;;
56911;SDS011;42800;53.928;27.662;2023-02-15T11:26:15;6.38;;;1.90;;
56911;SDS011;42800;53.928;27.662;2023-02-15T11:28:47;5.65;;;2.20;;
56911;SDS011;42800;53.928;27.662;2023-02-15T11:31:17;4.65;;;2.20;;
56911;SDS011;42800;53.928;27.662;2023-02-15T11:33:47;5.63;;;2.85;;
56911;SDS011;42800;53.928;27.662;2023-02-15T11:36:19;6.03;;;2.67;;
56911;SDS011;42800;53.928;27.662;2023-02-15T11:38:49;2.42;;;1.60;;
56911;SDS011;42800;53.928;27.662;2023-02-15T11:41:21;4.88;;;2.38;;
56911;SDS011;42800;53.928;27.662;2023-02-15T11:43:54;5.28;;;2.10;;
56911;SDS011;42800;53.928;27.662;2023-02-15T11:46:26;6.03;;;2.72;;
56911;SDS011;42800;53.928;27.662;2023-02-15T11:48:53;9.20;;;1.70;;
56911;SDS011;42800;53.928;27.662;2023-02-15T11:51:19;9.30;;;2.70;;
56911;SDS011;42800;53.928;27.662;2023-02-15T11:53:48;8.55;;;2.17;;
56911;SDS011;42800;53.928;27.662;2023-02-15T11:56:15;2.70;;;1.92;;
56911;SDS011;42800;53.928;27.662;2023-02-15T11:58:43;6.75;;;2.17;;
56911;SDS011;42800;53.928;27.662;2023-02-15T12:01:14;1.55;;;1.45;;
56911;SDS011;42800;53.928;27.662;2023-02-15T12:03:44;3.78;;;1.88;;
56911;SDS011;42800;53.928;27.662;2023-02-15T12:06:16;6.50;;;2.03;;
56911;SDS011;42800;53.928;27.662;2023-02-15T12:08:48;3.95;;;1.83;;
56911;SDS011;42800;53.928;27.662;2023-02-15T12:11:21;4.15;;;2.22;;
56911;SDS011;42800;53.928;27.662;2023-02-15T12:13:54;4.32;;;1.80;;
56911;SDS011;42800;53.928;27.662;2023-02-15T12:16:21;7.13;;;2.00;;
56911;SDS011;42800;53.928;27.662;2023-02-15T12:18:48;4.43;;;1.80;;
56911;SDS011;42800;53.928;27.662;2023-02-15T12:21:24;7.32;;;2.35;;
56911;SDS011;42800;53.928;27.662;2023-02-15T12:23:54;4.43;;;1.98;;
56911;SDS011;42800;53.928;27.662;2023-02-15T12:26:26;4.40;;;2.35;;
56911;SDS011;42800;53.928;27.662;2023-02-15T12:28:54;10.32;;;2.92;;
56911;SDS011;42800;53.928;27.662;2023-02-15T12:31:24;4.95;;;2.30;;
56911;SDS011;42800;53.928;27.662;2023-02-15T12:33:55;10.77;;;3.65;;
56911;SDS011;42800;53.928;27.662;2023-02-15T12:36:24;3.67;;;1.83;;
56911;SDS011;42800;53.928;27.662;2023-02-15T12:39:03;9.07;;;3.38;;
56911;SDS011;42800;53.928;27.662;2023-02-15T12:41:43;7.35;;;2.40;;
56911;SDS011;42800;53.928;27.662;2023-02-15T12:44:16;7.00;;;2.35;;
56911;SDS011;42800;53.928;27.662;2023-02-15T12:46:48;5.00;;;2.55;;
56911;SDS011;42800;53.928;27.662;2023-02-15T12:49:22;5.93;;;2.67;;
56911;SDS011;42800;53.928;27.662;2023-02-15T12:51:50;6.07;;;2.92;;
56911;SDS011;42800;53.928;27.662;2023-02-15T12:54:31;9.75;;;2.83;;
56911;SDS011;42800;53.928;27.662;2023-02-15T12:57:12;5.43;;;2.13;;
56911;SDS011;42800;53.928;27.662;2023-02-15T12:59:47;9.45;;;2.50;;
56911;SDS011;42800;53.928;27.662;2023-02-15T13:02:16;2.40;;;2.00;;
56911;SDS011;42800;53.928;27.662;2023-02-15T13:04:50;3.00;;;1.73;;
56911;SDS011;42800;53.928;27.662;2023-02-15T13:07:18;9.32;;;3.17;;
56911;SDS011;42800;53.928;27.662;2023-02-15T13:09:45;6.22;;;2.03;;
56911;SDS011;42800;53.928;27.662;2023-02-15T13:12:17;5.72;;;2.45;;
56911;SDS011;42800;53.928;27.662;2023-02-15T13:14:46;9.63;;;2.65;;
56911;SDS011;42800;53.928;27.662;2023-02-15T13:17:16;7.45;;;2.60;;
56911;SDS011;42800;53.928;27.662;2023-02-15T13:19:49;9.57;;;2.63;;
56911;SDS011;42800;53.928;27.662;2023-02-15T13:22:18;4.72;;;1.90;;
56911;SDS011;42800;53.928;27.662;2023-02-15T13:24:48;4.35;;;1.88;;
56911;SDS011;42800;53.928;27.662;2023-02-15T13:27:19;11.30;;;2.35;;
56911;SDS011;42800;53.928;27.662;2023-02-15T13:29:49;7.30;;;2.17;;
56911;SDS011;42800;53.928;27.662;2023-02-15T13:32:22;3.80;;;2.10;;
56911;SDS011;42800;53.928;27.662;2023-02-15T13:34:53;9.43;;;2.83;;
56911;SDS011;42800;53.928;27.662;2023-02-15T13:37:25;8.25;;;2.55;;
56911;SDS011;42800;53.928;27.662;2023-02-15T13:40:03;5.50;;;2.50;;
56911;SDS011;42800;53.928;27.662;2023-02-15T13:42:35;13.35;;;3.30;;
56911;SDS011;42800;53.928;27.662;2023-02-15T13:45:09;9.40;;;2.97;;
56911;SDS011;42800;53.928;27.662;2023-02-15T13:47:48;9.82;;;2.15;;
56911;SDS011;42800;53.928;27.662;2023-02-15T13:50:31;10.65;;;3.13;;
56911;SDS011;42800;53.928;27.662;2023-02-15T13:53:17;10.48;;;2.95;;
56911;SDS011;42800;53.928;27.662;2023-02-15T13:55:53;17.13;;;2.47;;
56911;SDS011;42800;53.928;27.662;2023-02-15T13:58:30;7.80;;;3.03;;
56911;SDS011;42800;53.928;27.662;2023-02-15T14:01:15;5.85;;;2.85;;
56911;SDS011;42800;53.928;27.662;2023-02-15T14:03:52;12.52;;;2.78;;
56911;SDS011;42800;53.928;27.662;2023-02-15T14:06:42;8.77;;;3.00;;
56911;SDS011;42800;53.928;27.662;2023-02-15T14:09:27;9.25;;;3.03;;
56911;SDS011;42800;53.928;27.662;2023-02-15T14:12:11;7.47;;;3.30;;
56911;SDS011;42800;53.928;27.662;2023-02-15T14:15:08;13.77;;;3.13;;
56911;SDS011;42800;53.928;27.662;2023-02-15T14:17:47;5.15;;;3.00;;
56911;SDS011;42800;53.928;27.662;2023-02-15T14:20:22;12.63;;;3.40;;
56911;SDS011;42800;53.928;27.662;2023-02-15T14:22:55;10.48;;;3.03;;
56911;SDS011;42800;53.928;27.662;2023-02-15T14:25:30;8.02;;;3.58;;
56911;SDS011;42800;53.928;27.662;2023-02-15T14:28:03;10.83;;;3.00;;
56911;SDS011;42800;53.928;27.662;2023-02-15T14:30:34;5.50;;;2.75;;
56911;SDS011;42800;53.928;27.662;2023-02-15T14:33:05;5.10;;;2.40;;
56911;SDS011;42800;53.928;27.662;2023-02-15T14:35:33;11.40;;;2.80;;
56911;SDS011;42800;53.928;27.662;2023-02-15T14:38:02;4.90;;;2.58;;
56911;SDS011;42800;53.928;27.662;2023-02-15T14:40:39;10.10;;;3.58;;
56911;SDS011;42800;53.928;27.662;2023-02-15T14:43:29;8.13;;;3.33;;
56911;SDS011;42800;53.928;27.662;2023-02-15T14:46:01;7.70;;;3.28;;
56911;SDS011;42800;53.928;27.662;2023-02-15T14:48:36;12.53;;;3.53;;
56911;SDS011;42800;53.928;27.662;2023-02-15T14:51:07;7.65;;;2.70;;
56911;SDS011;42800;53.928;27.662;2023-02-15T14:56:05;3.60;;;2.30;;
56911;SDS011;42800;53.928;27.662;2023-02-15T14:59:11;11.32;;;3.53;;
56911;SDS011;42800;53.928;27.662;2023-02-15T15:01:40;9.32;;;2.85;;
56911;SDS011;42800;53.928;27.662;2023-02-15T15:04:07;6.78;;;2.85;;
56911;SDS011;42800;53.928;27.662;2023-02-15T15:06:37;5.22;;;2.75;;
56911;SDS011;42800;53.928;27.662;2023-02-15T15:09:10;4.05;;;2.10;;
56911;SDS011;42800;53.928;27.662;2023-02-15T15:11:44;7.07;;;2.90;;